createdAt,value
2018-12-11T00:01:55.577Z,75.54
2018-12-11T00:04:22.967Z,75.56
2018-12-11T00:06:50.422Z,75.77
2018-12-11T00:09:18.029Z,75.25
2018-12-11T00:11:45.430Z,75.36
2018-12-11T00:14:12.825Z,75.28
2018-12-11T00:16:40.506Z,75.04
2018-12-11T00:19:07.951Z,75.13
2018-12-11T00:21:35.417Z,75.18
2018-12-11T00:24:02.921Z,75.00
2018-12-11T00:26:30.322Z,75.23
2018-12-11T00:28:57.907Z,74.98
2018-12-11T00:31:25.575Z,74.92
2018-12-11T00:33:53.057Z,74.94
2018-12-11T00:36:20.453Z,74.89
2018-12-11T00:38:48.127Z,74.99
2018-12-11T00:41:15.526Z,74.83
2018-12-11T00:43:42.956Z,74.85
2018-12-11T00:46:10.699Z,74.92
2018-12-11T00:48:38.116Z,75.09
2018-12-11T00:51:05.601Z,74.80
2018-12-11T00:53:33.399Z,74.80
2018-12-11T00:56:00.823Z,75.13
2018-12-11T00:58:28.212Z,75.33
2018-12-11T01:00:55.859Z,74.96
2018-12-11T01:03:23.275Z,74.96
2018-12-11T01:05:51.464Z,74.74
2018-12-11T01:08:19.053Z,74.46
2018-12-11T01:10:46.447Z,75.01
2018-12-11T01:13:13.863Z,74.90
2018-12-11T01:15:41.411Z,74.52
2018-12-11T01:18:08.896Z,74.71
2018-12-11T01:20:36.412Z,74.60
2018-12-11T01:23:03.851Z,74.51
2018-12-11T01:25:31.247Z,74.14
2018-12-11T01:27:58.640Z,74.47
2018-12-11T01:30:26.242Z,74.15
2018-12-11T01:32:53.658Z,74.46
2018-12-11T01:35:21.189Z,74.15
2018-12-11T01:37:48.951Z,74.52
2018-12-11T01:40:16.372Z,74.60
2018-12-11T01:42:44.281Z,74.42
2018-12-11T01:45:12.018Z,74.63
2018-12-11T01:47:39.419Z,74.46
2018-12-11T01:50:06.921Z,74.47
2018-12-11T01:52:34.642Z,74.81
2018-12-11T01:55:02.108Z,74.38
2018-12-11T01:57:29.524Z,74.87
2018-12-11T01:59:57.479Z,74.62
2018-12-11T02:02:25.002Z,74.62
2018-12-11T02:04:52.410Z,74.81
2018-12-11T02:07:20.158Z,74.46
2018-12-11T02:09:48.336Z,74.62
2018-12-11T02:12:15.735Z,74.85
2018-12-11T02:14:43.447Z,74.82
2018-12-11T02:17:10.840Z,74.76
2018-12-11T02:19:38.299Z,75.06
2018-12-11T02:22:05.755Z,75.37
2018-12-11T02:24:33.204Z,75.66
2018-12-11T02:27:00.694Z,75.84
2018-12-11T02:29:28.348Z,76.14
2018-12-11T02:31:56.353Z,75.85
2018-12-11T02:34:24.578Z,75.90
2018-12-11T02:36:52.104Z,75.90
2018-12-11T02:39:19.563Z,75.69
2018-12-11T02:41:47.044Z,75.94
2018-12-11T02:44:14.676Z,75.81
2018-12-11T02:46:42.541Z,75.89
2018-12-11T02:49:09.937Z,75.93
2018-12-11T02:51:37.485Z,76.12
2018-12-11T02:54:05.273Z,76.13
2018-12-11T02:56:32.736Z,76.09
2018-12-11T02:59:00.421Z,75.72
2018-12-11T03:01:27.863Z,76.00
2018-12-11T03:03:55.804Z,75.83
2018-12-11T03:06:23.243Z,75.57
2018-12-11T03:08:50.639Z,75.19
2018-12-11T03:11:18.035Z,75.51
2018-12-11T03:13:45.968Z,75.37
2018-12-11T03:16:13.424Z,75.46
2018-12-11T03:18:40.816Z,75.69
2018-12-11T03:21:08.362Z,75.44
2018-12-11T03:23:36.375Z,75.63
2018-12-11T03:26:03.779Z,75.72
2018-12-11T03:28:31.445Z,75.69
2018-12-11T03:30:58.913Z,75.04
2018-12-11T03:33:26.437Z,75.27
2018-12-11T03:35:54.143Z,75.36
2018-12-11T03:38:21.535Z,75.46
2018-12-11T03:40:48.997Z,74.84
2018-12-11T03:43:16.675Z,75.41
2018-12-11T03:45:44.068Z,74.89
2018-12-11T03:48:12.146Z,74.94
2018-12-11T03:50:39.876Z,74.65
2018-12-11T03:53:07.264Z,74.73
2018-12-11T03:55:35.239Z,75.03
2018-12-11T03:58:03.050Z,74.61
2018-12-11T04:00:30.570Z,74.79
2018-12-11T04:02:57.961Z,74.38
2018-12-11T04:05:25.746Z,74.87
2018-12-11T04:07:53.144Z,74.75
2018-12-11T04:10:20.532Z,74.35
2018-12-11T04:12:48.111Z,74.21
2018-12-11T04:15:15.668Z,74.71
2018-12-11T04:17:43.123Z,74.41
2018-12-11T04:20:10.792Z,74.61
2018-12-11T04:22:38.190Z,74.27
2018-12-11T04:25:06.106Z,74.46
2018-12-11T04:27:33.780Z,74.33
2018-12-11T04:30:01.296Z,74.33
2018-12-11T04:32:28.683Z,74.34
2018-12-11T04:34:56.144Z,74.08
2018-12-11T04:37:23.540Z,73.78
2018-12-11T04:39:50.950Z,74.15
2018-12-11T04:42:18.923Z,73.76
2018-12-11T04:44:46.394Z,73.45
2018-12-11T04:47:13.864Z,73.45
2018-12-11T04:49:41.400Z,73.67
2018-12-11T04:52:08.787Z,73.54
2018-12-11T04:54:36.191Z,73.53
2018-12-11T04:57:03.769Z,73.64
2018-12-11T04:59:31.463Z,73.45
2018-12-11T05:01:58.929Z,73.12
2018-12-11T05:04:27.065Z,73.43
2018-12-11T05:06:54.987Z,73.23
2018-12-11T05:09:22.447Z,73.11
2018-12-11T05:11:50.299Z,72.92
2018-12-11T05:14:17.719Z,73.04
2018-12-11T05:16:45.399Z,73.52
2018-12-11T05:19:12.932Z,73.13
2018-12-11T05:21:40.360Z,72.88
2018-12-11T05:24:08.148Z,73.20
2018-12-11T05:26:35.592Z,73.40
2018-12-11T05:29:03.283Z,73.04
2018-12-11T05:31:30.708Z,73.53
2018-12-11T05:33:58.129Z,73.45
2018-12-11T05:36:25.536Z,72.87
2018-12-11T05:38:53.380Z,73.13
2018-12-11T05:41:21.269Z,73.39
2018-12-11T05:43:48.720Z,73.19
2018-12-11T05:46:16.115Z,73.20
2018-12-11T05:48:43.834Z,73.42
2018-12-11T05:51:11.304Z,73.46
2018-12-11T05:53:38.730Z,73.37
2018-12-11T05:56:06.311Z,73.02
2018-12-11T05:58:34.287Z,73.47
2018-12-11T06:01:01.687Z,73.15
2018-12-11T06:03:29.407Z,73.45
2018-12-11T06:05:56.804Z,73.66
2018-12-11T06:08:24.594Z,73.47
2018-12-11T06:10:52.116Z,74.07
2018-12-11T06:13:19.799Z,73.65
2018-12-11T06:15:47.195Z,73.77
2018-12-11T06:18:14.765Z,74.19
2018-12-11T06:20:42.283Z,73.89
2018-12-11T06:23:10.003Z,74.04
2018-12-11T06:25:37.446Z,74.45
2018-12-11T06:28:05.165Z,74.08
2018-12-11T06:30:32.811Z,74.61
2018-12-11T06:33:00.462Z,74.32
2018-12-11T06:35:27.859Z,74.51
2018-12-11T06:37:55.270Z,74.42
2018-12-11T06:40:22.893Z,73.94
2018-12-11T06:42:50.278Z,73.94
2018-12-11T06:45:17.676Z,74.30
2018-12-11T06:47:45.474Z,74.05
2018-12-11T06:50:13.456Z,74.02
2018-12-11T06:52:40.856Z,73.99
2018-12-11T06:55:08.553Z,73.75
2018-12-11T06:57:35.941Z,74.01
2018-12-11T07:00:03.663Z,73.79
2018-12-11T07:02:31.344Z,73.63
2018-12-11T07:04:58.751Z,73.43
2018-12-11T07:07:27.048Z,73.39
2018-12-11T07:09:54.728Z,73.46
2018-12-11T07:12:22.128Z,74.04
2018-12-11T07:14:49.528Z,73.28
2018-12-11T07:17:17.513Z,73.45
2018-12-11T07:19:45.740Z,73.19
2018-12-11T07:22:13.144Z,73.36
2018-12-11T07:24:40.704Z,73.67
2018-12-11T07:27:08.795Z,73.16
2018-12-11T07:29:36.188Z,73.35
2018-12-11T07:32:04.202Z,73.36
2018-12-11T07:34:31.648Z,73.01
2018-12-11T07:36:59.053Z,73.06
2018-12-11T07:39:26.503Z,72.52
2018-12-11T07:41:53.895Z,72.83
2018-12-11T07:44:21.295Z,72.70
2018-12-11T07:46:48.828Z,72.53
2018-12-11T07:49:16.219Z,72.41
2018-12-11T07:51:43.623Z,72.70
2018-12-11T07:54:11.055Z,72.25
2018-12-11T07:56:38.444Z,72.05
2018-12-11T07:59:05.963Z,72.08
2018-12-11T08:01:33.473Z,72.48
2018-12-11T08:04:00.967Z,72.19
2018-12-11T08:06:28.373Z,73.18
2018-12-11T08:08:56.054Z,74.25
2018-12-11T08:11:23.642Z,74.51
2018-12-11T08:13:51.039Z,75.53
2018-12-11T08:16:18.822Z,75.85
2018-12-11T08:18:46.210Z,75.75
2018-12-11T08:21:13.616Z,75.81
2018-12-11T08:23:41.193Z,76.05
2018-12-11T08:26:09.018Z,75.67
2018-12-11T08:28:36.405Z,76.07
2018-12-11T08:31:04.001Z,75.98
2018-12-11T08:33:31.390Z,75.61
2018-12-11T08:35:58.784Z,75.30
2018-12-11T08:38:26.343Z,75.86
2018-12-11T08:40:53.752Z,75.28
2018-12-11T08:43:21.146Z,76.01
2018-12-11T08:45:48.915Z,75.77
2018-12-11T08:48:16.330Z,76.51
2018-12-11T08:50:43.915Z,76.63
2018-12-11T08:53:11.600Z,76.98
2018-12-11T08:55:39.187Z,77.35
2018-12-11T08:58:06.989Z,77.17
2018-12-11T09:00:34.621Z,77.42
2018-12-11T09:03:02.152Z,76.87
2018-12-11T09:05:29.943Z,77.19
2018-12-11T09:07:57.379Z,77.42
2018-12-11T09:10:25.210Z,76.94
2018-12-11T09:12:53.592Z,77.29
2018-12-11T09:15:21.316Z,76.67
2018-12-11T09:17:48.728Z,76.61
2018-12-11T09:20:16.123Z,76.75
2018-12-11T09:22:43.743Z,76.17
2018-12-11T09:25:11.136Z,76.08
2018-12-11T09:27:38.527Z,76.28
2018-12-11T09:30:07.772Z,76.12
2018-12-11T09:32:35.175Z,76.12
2018-12-11T09:35:02.580Z,75.79
2018-12-11T09:37:30.133Z,75.65
2018-12-11T09:39:57.532Z,75.42
2018-12-11T09:42:27.899Z,75.48
2018-12-11T09:44:54.360Z,75.35
2018-12-11T09:47:21.755Z,75.34
2018-12-11T09:49:49.263Z,75.15
2018-12-11T09:52:16.712Z,75.28
2018-12-11T09:54:44.150Z,75.04
2018-12-11T09:57:11.612Z,74.71
2018-12-11T09:59:39.079Z,74.58
2018-12-11T10:02:06.532Z,74.64
2018-12-11T10:04:33.929Z,74.48
2018-12-11T10:07:01.719Z,74.61
2018-12-11T10:09:29.116Z,74.44
2018-12-11T10:11:56.511Z,74.16
2018-12-11T10:14:24.219Z,74.11
2018-12-11T10:16:51.620Z,74.21
2018-12-11T10:19:19.016Z,74.02
2018-12-11T10:21:46.708Z,73.52
2018-12-11T10:24:14.100Z,73.51
2018-12-11T10:26:42.380Z,73.52
2018-12-11T10:29:09.895Z,73.42
2018-12-11T10:31:37.297Z,73.45
2018-12-11T10:34:04.684Z,73.62
2018-12-11T10:36:32.272Z,73.02
2018-12-11T10:38:59.685Z,73.14
2018-12-11T10:41:27.064Z,73.09
2018-12-11T10:43:54.652Z,72.80
2018-12-11T10:46:22.064Z,72.80
2018-12-11T10:48:49.460Z,72.40
2018-12-11T10:51:16.876Z,72.15
2018-12-11T10:53:44.272Z,72.41
2018-12-11T10:56:11.660Z,72.39
2018-12-11T10:58:39.962Z,72.42
2018-12-11T11:01:12.936Z,72.48
2018-12-11T11:03:40.344Z,72.47
2018-12-11T11:06:07.776Z,72.94
2018-12-11T11:08:35.180Z,72.61
2018-12-11T11:11:03.185Z,72.07
2018-12-11T11:13:30.720Z,72.36
2018-12-11T11:15:58.211Z,72.03
2018-12-11T11:18:25.982Z,71.92
2018-12-11T11:20:53.667Z,72.25
2018-12-11T11:23:21.153Z,71.95
2018-12-11T11:25:48.549Z,71.59
2018-12-11T11:28:16.137Z,71.28
2018-12-11T11:30:43.525Z,71.11
2018-12-11T11:33:10.920Z,70.96
2018-12-11T11:35:38.350Z,71.02
2018-12-11T11:38:05.746Z,71.44
2018-12-11T11:40:33.180Z,71.25
2018-12-11T11:43:00.626Z,71.21
2018-12-11T11:45:28.023Z,70.88
2018-12-11T11:47:55.477Z,70.48
2018-12-11T11:50:23.180Z,70.31
2018-12-11T11:52:50.569Z,70.59
2018-12-11T11:55:18.053Z,70.39
2018-12-11T11:57:45.617Z,70.46
2018-12-11T12:00:14.290Z,70.29
2018-12-11T12:02:41.689Z,70.20
2018-12-11T12:05:09.213Z,70.07
2018-12-11T12:07:36.620Z,70.19
2018-12-11T12:10:06.354Z,70.42
2018-12-11T12:12:33.860Z,69.96
2018-12-11T12:15:01.261Z,70.01
2018-12-11T12:17:28.803Z,70.03
2018-12-11T12:19:56.507Z,70.31
2018-12-11T12:22:23.964Z,69.97
2018-12-11T12:24:51.766Z,69.86
2018-12-11T12:27:19.182Z,70.00
2018-12-11T12:29:46.580Z,69.76
2018-12-11T12:32:13.975Z,69.74
2018-12-11T12:34:41.663Z,69.91
2018-12-11T12:37:09.148Z,69.92
2018-12-11T12:39:36.623Z,69.77
2018-12-11T12:42:04.246Z,69.48
2018-12-11T12:44:31.631Z,70.17
2018-12-11T12:46:59.028Z,69.51
2018-12-11T12:49:26.611Z,69.87
2018-12-11T12:51:54.003Z,70.90
2018-12-11T12:54:21.396Z,71.76
2018-12-11T12:56:48.841Z,72.44
2018-12-11T12:59:16.227Z,73.56
2018-12-11T13:01:43.619Z,73.78
2018-12-11T13:04:11.063Z,74.09
2018-12-11T13:06:38.731Z,74.54
2018-12-11T13:09:06.853Z,74.51
2018-12-11T13:11:34.751Z,74.65
2018-12-11T13:14:02.145Z,74.58
2018-12-11T13:16:29.738Z,74.49
2018-12-11T13:18:57.399Z,74.27
2018-12-11T13:21:24.786Z,74.38
2018-12-11T13:23:52.207Z,74.23
2018-12-11T13:26:19.628Z,74.31
2018-12-11T13:28:47.025Z,74.37
2018-12-11T13:31:14.417Z,74.44
2018-12-11T13:33:41.877Z,74.17
2018-12-11T13:36:09.364Z,74.49
2018-12-11T13:38:36.776Z,74.25
2018-12-11T13:41:04.639Z,74.06
2018-12-11T13:43:32.133Z,74.50
2018-12-11T13:45:59.583Z,74.47
2018-12-11T13:48:27.419Z,74.95
2018-12-11T13:50:54.885Z,74.72
2018-12-11T13:53:23.094Z,74.77
2018-12-11T13:55:50.517Z,74.88
2018-12-11T13:58:17.907Z,74.74
2018-12-11T14:00:45.304Z,74.98
2018-12-11T14:03:12.975Z,74.51
2018-12-11T14:05:40.379Z,74.79
2018-12-11T14:08:07.777Z,74.64
2018-12-11T14:10:35.469Z,74.19
2018-12-11T14:13:03.063Z,74.46
2018-12-11T14:15:30.519Z,74.43
2018-12-11T14:17:57.966Z,73.75
2018-12-11T14:20:25.540Z,73.84
2018-12-11T14:22:53.387Z,74.03
2018-12-11T14:25:20.870Z,73.41
2018-12-11T14:27:48.260Z,73.61
2018-12-11T14:30:16.172Z,73.54
2018-12-11T14:32:43.688Z,73.48
2018-12-11T14:35:11.152Z,73.12
2018-12-11T14:37:38.543Z,73.25
2018-12-11T14:40:06.986Z,73.54
2018-12-11T14:42:34.387Z,73.60
2018-12-11T14:45:01.793Z,73.76
2018-12-11T14:47:29.656Z,73.60
2018-12-11T14:49:57.047Z,73.78
2018-12-11T14:52:24.443Z,74.08
2018-12-11T14:54:52.128Z,74.36
2018-12-11T14:57:19.731Z,74.13
2018-12-11T14:59:47.137Z,74.12
2018-12-11T15:02:14.556Z,74.43
2018-12-11T15:04:41.951Z,74.20
2018-12-11T15:07:09.362Z,74.40
2018-12-11T15:09:48.043Z,74.53
2018-12-11T15:12:15.501Z,74.40
2018-12-11T15:14:42.993Z,74.22
2018-12-11T15:17:10.613Z,74.81
2018-12-11T15:19:38.003Z,74.25
2018-12-11T15:22:05.399Z,74.76
2018-12-11T15:24:32.847Z,74.29
2018-12-11T15:27:00.243Z,74.53
2018-12-11T15:29:28.561Z,74.25
2018-12-11T15:31:56.075Z,74.41
2018-12-11T15:34:23.485Z,74.16
2018-12-11T15:36:50.883Z,74.15
2018-12-11T15:39:18.437Z,74.49
2018-12-11T15:41:45.831Z,74.25
2018-12-11T15:44:13.232Z,73.98
2018-12-11T15:46:41.223Z,74.51
2018-12-11T15:49:08.627Z,74.13
2018-12-11T15:51:36.178Z,73.85
2018-12-11T15:54:03.756Z,74.06
2018-12-11T15:56:31.155Z,74.35
2018-12-11T15:58:58.558Z,73.89
2018-12-11T16:01:25.984Z,73.64
2018-12-11T16:03:53.371Z,73.87
2018-12-11T16:06:20.816Z,73.68
2018-12-11T16:08:48.430Z,73.69
2018-12-11T16:11:15.831Z,73.72
2018-12-11T16:13:43.238Z,73.61
2018-12-11T16:16:10.799Z,73.47
2018-12-11T16:18:38.703Z,74.06
2018-12-11T16:21:06.387Z,73.93
2018-12-11T16:23:34.004Z,73.64
2018-12-11T16:26:01.411Z,73.41
2018-12-11T16:28:29.017Z,73.18
2018-12-11T16:30:56.780Z,73.24
2018-12-11T16:33:24.234Z,73.16
2018-12-11T16:35:51.630Z,73.07
2018-12-11T16:38:19.348Z,73.25
2018-12-11T16:40:46.751Z,73.40
2018-12-11T16:43:14.160Z,73.52
2018-12-11T16:45:41.722Z,73.22
2018-12-11T16:48:09.124Z,73.07
2018-12-11T16:50:36.547Z,73.45
2018-12-11T16:53:04.288Z,73.39
2018-12-11T16:55:32.407Z,73.56
2018-12-11T16:57:59.817Z,73.55
2018-12-11T17:00:27.546Z,73.57
2018-12-11T17:02:54.942Z,73.36
2018-12-11T17:05:22.340Z,73.74
2018-12-11T17:07:49.968Z,73.52
2018-12-11T17:10:17.354Z,73.47
2018-12-11T17:12:44.920Z,73.84
2018-12-11T17:15:14.293Z,73.86
2018-12-11T17:17:41.754Z,73.58
2018-12-11T17:20:09.151Z,73.76
2018-12-11T17:22:36.838Z,73.86
2018-12-11T17:25:05.060Z,74.22
2018-12-11T17:27:32.466Z,74.39
2018-12-11T17:30:00.036Z,73.93
2018-12-11T17:32:27.432Z,74.57
2018-12-11T17:34:54.835Z,74.63
2018-12-11T17:37:22.405Z,74.17
2018-12-11T17:39:50.636Z,74.27
2018-12-11T17:42:18.040Z,74.21
2018-12-11T17:44:45.504Z,74.33
2018-12-11T17:47:12.904Z,74.56
2018-12-11T17:49:40.300Z,74.01
2018-12-11T17:52:07.872Z,73.92
2018-12-11T17:54:35.269Z,74.23
2018-12-11T17:57:02.679Z,74.53
2018-12-11T17:59:30.148Z,74.57
2018-12-11T18:01:58.197Z,74.27
2018-12-11T18:04:25.851Z,74.02
2018-12-11T18:06:53.406Z,73.87
2018-12-11T18:09:20.886Z,74.03
2018-12-11T18:11:48.666Z,74.07
2018-12-11T18:14:16.138Z,74.13
2018-12-11T18:16:44.040Z,74.27
2018-12-11T18:19:11.438Z,73.84
2018-12-11T18:21:39.190Z,74.04
2018-12-11T18:24:06.611Z,73.83
2018-12-11T18:26:34.004Z,73.87
2018-12-11T18:29:01.887Z,73.97
2018-12-11T18:31:29.301Z,73.99
2018-12-11T18:33:56.700Z,73.53
2018-12-11T18:36:24.338Z,73.78
2018-12-11T18:38:51.738Z,73.53
2018-12-11T18:41:19.129Z,73.87
2018-12-11T18:43:46.706Z,73.69
2018-12-11T18:46:14.119Z,73.50
2018-12-11T18:48:41.557Z,73.64
2018-12-11T18:51:09.288Z,73.65
2018-12-11T18:53:36.675Z,73.09
2018-12-11T18:56:04.146Z,73.65
2018-12-11T18:58:34.210Z,73.43
2018-12-11T19:01:00.969Z,73.24
2018-12-11T19:03:28.449Z,73.52
2018-12-11T19:05:56.099Z,73.07
2018-12-11T19:08:23.491Z,72.91
2018-12-11T19:10:50.918Z,73.12
2018-12-11T19:13:18.657Z,73.05
2018-12-11T19:15:46.131Z,72.71
2018-12-11T19:18:13.701Z,72.89
2018-12-11T19:20:41.325Z,72.75
2018-12-11T19:23:13.046Z,72.53
2018-12-11T19:25:40.537Z,72.75
2018-12-11T19:28:08.316Z,72.64
2018-12-11T19:30:35.782Z,72.62
2018-12-11T19:33:03.181Z,72.87
2018-12-11T19:35:33.167Z,72.64
2018-12-11T19:38:00.338Z,72.43
2018-12-11T19:40:27.736Z,72.33
2018-12-11T19:42:55.321Z,72.19
2018-12-11T19:45:22.749Z,72.37
2018-12-11T19:47:50.150Z,72.28
2018-12-11T19:50:17.596Z,72.53
2018-12-11T19:52:45.099Z,72.18
2018-12-11T19:55:12.505Z,72.38
2018-12-11T19:57:40.144Z,72.42
2018-12-11T20:00:08.695Z,72.10
2018-12-11T20:02:36.107Z,71.81
2018-12-11T20:05:05.312Z,72.29
2018-12-11T20:07:32.709Z,71.95
2018-12-11T20:10:05.824Z,72.00
2018-12-11T20:12:33.227Z,72.04
2018-12-11T20:15:04.651Z,72.20
2018-12-11T20:17:30.295Z,72.25
2018-12-11T20:19:57.694Z,72.25
2018-12-11T20:22:25.171Z,72.21
2018-12-11T20:24:52.929Z,71.60
2018-12-11T20:27:20.353Z,71.89
2018-12-11T20:29:47.757Z,72.06
2018-12-11T20:32:15.385Z,71.84
2018-12-11T20:34:42.850Z,72.04
2018-12-11T20:37:10.419Z,71.94
2018-12-11T20:39:37.976Z,72.19
2018-12-11T20:42:05.856Z,71.67
2018-12-11T20:44:33.271Z,71.85
2018-12-11T20:47:00.700Z,72.25
2018-12-11T20:49:28.098Z,71.94
2018-12-11T20:51:55.527Z,72.06
2018-12-11T20:54:23.006Z,71.79
2018-12-11T20:56:50.405Z,71.96
2018-12-11T20:59:17.872Z,71.94
2018-12-11T21:01:45.394Z,72.16
2018-12-11T21:04:12.802Z,72.05
2018-12-11T21:06:40.200Z,71.84
2018-12-11T21:09:10.965Z,71.91
2018-12-11T21:11:38.367Z,71.93
2018-12-11T21:14:05.820Z,71.80
2018-12-11T21:16:33.515Z,71.67
2018-12-11T21:19:00.997Z,71.67
2018-12-11T21:21:28.687Z,71.50
2018-12-11T21:23:57.382Z,71.64
2018-12-11T21:26:24.866Z,71.60
2018-12-11T21:28:52.473Z,71.39
2018-12-11T21:31:20.361Z,71.66
2018-12-11T21:33:47.772Z,71.25
2018-12-11T21:36:15.169Z,71.71
2018-12-11T21:38:42.874Z,71.38
2018-12-11T21:41:10.272Z,71.74
2018-12-11T21:43:37.674Z,71.54
2018-12-11T21:46:05.230Z,71.60
2018-12-11T21:48:32.679Z,71.43
2018-12-11T21:51:00.157Z,71.73
2018-12-11T21:53:28.018Z,71.36
2018-12-11T21:55:55.461Z,71.77
2018-12-11T21:58:22.869Z,71.43
2018-12-11T22:00:50.699Z,71.56
2018-12-11T22:03:18.384Z,71.80
2018-12-11T22:05:45.959Z,71.47
2018-12-11T22:08:13.407Z,71.25
2018-12-11T22:10:40.805Z,71.67
2018-12-11T22:13:08.296Z,71.06
2018-12-11T22:15:35.887Z,71.13
2018-12-11T22:18:03.296Z,71.05
2018-12-11T22:20:30.736Z,71.35
2018-12-11T22:22:58.438Z,70.86
2018-12-11T22:25:26.640Z,71.36
2018-12-11T22:27:54.044Z,71.20
2018-12-11T22:30:35.674Z,71.45
2018-12-11T22:33:03.155Z,70.84
2018-12-11T22:35:30.551Z,70.82
2018-12-11T22:37:57.968Z,70.84
2018-12-11T22:40:25.363Z,71.05
2018-12-11T22:42:53.683Z,71.22
2018-12-11T22:45:21.200Z,71.11
2018-12-11T22:47:48.599Z,71.02
2018-12-11T22:50:15.999Z,70.81
2018-12-11T22:52:43.473Z,71.04
2018-12-11T22:55:10.870Z,70.88
2018-12-11T22:57:38.264Z,70.80
2018-12-11T23:00:08.159Z,71.02
2018-12-11T23:02:35.730Z,71.10
2018-12-11T23:05:04.385Z,70.98
2018-12-11T23:07:32.007Z,71.08
2018-12-11T23:09:59.405Z,70.71
2018-12-11T23:12:26.799Z,70.68
2018-12-11T23:14:54.247Z,70.50
2018-12-11T23:17:21.723Z,70.71
2018-12-11T23:19:49.141Z,70.75
2018-12-11T23:22:16.631Z,70.81
2018-12-11T23:24:44.300Z,70.53
2018-12-11T23:27:11.899Z,70.73
2018-12-11T23:29:39.536Z,70.99
2018-12-11T23:32:06.938Z,70.71
2018-12-11T23:34:34.488Z,70.33
2018-12-11T23:37:01.912Z,70.19
2018-12-11T23:39:29.304Z,70.13
2018-12-11T23:41:56.702Z,70.12
2018-12-11T23:44:24.154Z,70.66
2018-12-11T23:46:51.609Z,70.51
2018-12-11T23:49:19.005Z,70.63
2018-12-11T23:51:46.509Z,70.24
2018-12-11T23:54:14.093Z,70.32
2018-12-11T23:56:41.481Z,70.43
2018-12-11T23:59:08.898Z,70.33
